createdAt,value
2023-03-26T00:01:00.700Z,7.22
2023-03-26T00:04:07.451Z,7.21
2023-03-26T00:07:11.202Z,7.18
2023-03-26T00:10:15.704Z,7.17
2023-03-26T00:13:19.098Z,7.12
2023-03-26T00:16:22.666Z,7.09
2023-03-26T00:19:28.088Z,7.09
2023-03-26T00:22:31.437Z,7.09
2023-03-26T00:25:35.253Z,7.13
2023-03-26T00:28:40.712Z,6.96
2023-03-26T00:31:46.425Z,7.05
2023-03-26T00:34:52.272Z,6.95
2023-03-26T00:37:55.926Z,6.96
2023-03-26T00:41:06.124Z,6.95
2023-03-26T00:44:10.709Z,6.98
2023-03-26T00:47:14.621Z,7.06
2023-03-26T00:50:19.751Z,7.07
2023-03-26T00:53:23.494Z,6.95
2023-03-26T00:56:27.698Z,7.02
2023-03-26T00:59:32.100Z,6.96
2023-03-26T01:02:36.060Z,6.98
2023-03-26T01:05:46.771Z,6.90
2023-03-26T01:08:52.984Z,6.92
2023-03-26T01:11:56.790Z,6.91
2023-03-26T01:15:04.244Z,6.87
2023-03-26T01:18:10.018Z,6.87
2023-03-26T01:21:22.722Z,7.02
2023-03-26T01:24:28.924Z,6.95
2023-03-26T01:27:41.186Z,6.99
2023-03-26T01:30:58.854Z,7.08
2023-03-26T01:34:12.522Z,7.07
2023-03-26T01:37:25.358Z,7.13
2023-03-26T01:40:38.805Z,7.15
2023-03-26T01:43:49.213Z,7.12
2023-03-26T01:46:54.541Z,7.23
2023-03-26T01:49:59.571Z,7.25
2023-03-26T01:53:03.261Z,7.18
2023-03-26T01:56:17.373Z,7.27
2023-03-26T01:59:41.486Z,7.23
2023-03-26T02:02:56.635Z,7.41
2023-03-26T02:06:10.042Z,7.38
2023-03-26T02:09:17.567Z,7.37
2023-03-26T02:12:24.629Z,7.36
2023-03-26T02:15:28.037Z,7.31
2023-03-26T02:18:36.560Z,7.41
2023-03-26T02:21:40.481Z,7.44
2023-03-26T02:24:46.960Z,7.49
2023-03-26T02:27:54.176Z,7.49
2023-03-26T02:31:01.748Z,7.54
2023-03-26T02:34:06.767Z,7.45
2023-03-26T02:37:13.035Z,7.49
2023-03-26T02:40:21.282Z,7.47
2023-03-26T02:43:27.048Z,7.52
2023-03-26T02:46:33.142Z,7.56
2023-03-26T02:49:51.069Z,7.58
2023-03-26T02:53:07.604Z,7.52
2023-03-26T02:56:14.648Z,7.56
2023-03-26T02:59:30.871Z,7.55
2023-03-26T03:02:54.407Z,7.54
2023-03-26T03:06:06.949Z,7.68
2023-03-26T03:09:15.815Z,7.67
2023-03-26T03:12:21.746Z,7.72
2023-03-26T03:15:27.477Z,7.63
2023-03-26T03:18:30.910Z,7.58
2023-03-26T03:21:34.867Z,7.56
2023-03-26T03:24:38.864Z,7.59
2023-03-26T03:27:43.314Z,7.60
2023-03-26T03:30:53.480Z,7.58
2023-03-26T03:34:03.880Z,7.54
2023-03-26T03:37:11.329Z,7.57
2023-03-26T03:40:24.623Z,7.49
2023-03-26T03:43:28.687Z,7.61
2023-03-26T03:46:54.178Z,7.45
2023-03-26T03:50:00.268Z,7.48
2023-03-26T03:53:05.833Z,7.58
2023-03-26T03:56:10.621Z,7.54
2023-03-26T03:59:32.410Z,7.55
2023-03-26T04:02:37.879Z,7.56
2023-03-26T04:05:43.920Z,7.48
2023-03-26T04:08:47.864Z,7.53
2023-03-26T04:11:52.481Z,7.58
2023-03-26T04:15:09.463Z,7.57
2023-03-26T04:18:14.421Z,7.57
2023-03-26T04:21:21.331Z,7.53
2023-03-26T04:24:24.991Z,7.46
2023-03-26T04:27:43.497Z,7.43
2023-03-26T04:31:07.632Z,7.47
2023-03-26T04:34:24.411Z,7.49
2023-03-26T04:37:48.276Z,7.41
2023-03-26T04:41:01.592Z,7.51
2023-03-26T04:44:26.346Z,7.48
2023-03-26T04:47:37.220Z,7.41
2023-03-26T04:50:45.105Z,7.35
2023-03-26T04:53:54.224Z,7.24
2023-03-26T04:57:26.314Z,7.27
2023-03-26T05:00:50.550Z,7.26
2023-03-26T05:03:54.051Z,7.26
2023-03-26T05:07:00.034Z,7.40
2023-03-26T05:10:14.904Z,7.34
2023-03-26T05:13:32.049Z,7.39
2023-03-26T05:16:44.949Z,7.28
2023-03-26T05:19:48.957Z,7.32
2023-03-26T05:22:55.302Z,7.26
2023-03-26T05:26:08.416Z,7.33
2023-03-26T05:29:12.840Z,7.42
2023-03-26T05:32:20.904Z,7.55
2023-03-26T05:35:27.790Z,7.53
2023-03-26T05:38:33.412Z,7.56
2023-03-26T05:41:38.637Z,7.56
2023-03-26T05:44:42.633Z,7.50
2023-03-26T05:47:55.989Z,7.53
2023-03-26T05:51:01.967Z,7.46
2023-03-26T05:54:08.972Z,7.46
2023-03-26T05:57:31.383Z,7.44
2023-03-26T06:00:59.489Z,7.37
2023-03-26T06:04:13.852Z,7.29
2023-03-26T06:07:24.008Z,7.22
2023-03-26T06:10:47.716Z,7.18
2023-03-26T06:13:51.186Z,7.17
2023-03-26T06:16:55.194Z,7.19
2023-03-26T06:19:58.879Z,7.13
2023-03-26T06:23:11.564Z,7.15
2023-03-26T06:26:36.954Z,7.12
2023-03-26T06:30:07.496Z,7.21
2023-03-26T06:33:31.338Z,7.45
2023-03-26T06:36:37.347Z,7.42
2023-03-26T06:39:41.849Z,7.45
2023-03-26T06:43:06.672Z,7.45
2023-03-26T06:46:32.309Z,7.54
2023-03-26T06:49:54.376Z,7.71
2023-03-26T06:53:25.174Z,7.66
2023-03-26T06:56:48.626Z,7.64
2023-03-26T06:59:59.660Z,7.58
2023-03-26T07:03:22.147Z,7.50
2023-03-26T07:07:01.336Z,7.64
2023-03-26T07:10:33.917Z,7.63
2023-03-26T07:13:48.941Z,7.79
2023-03-26T07:17:13.952Z,7.87
2023-03-26T07:20:31.948Z,7.87
2023-03-26T07:23:36.377Z,7.83
2023-03-26T07:27:11.243Z,7.93
2023-03-26T07:30:26.075Z,7.98
2023-03-26T07:34:05.626Z,7.84
2023-03-26T07:37:45.292Z,7.97
2023-03-26T07:41:06.215Z,7.95
2023-03-26T07:44:49.155Z,7.87
2023-03-26T07:48:04.674Z,8.11
2023-03-26T07:51:33.122Z,8.17
2023-03-26T07:55:13.185Z,8.31
2023-03-26T07:59:05.482Z,8.44
2023-03-26T08:02:41.405Z,8.39
2023-03-26T08:06:11.226Z,8.41
2023-03-26T08:09:30.077Z,8.62
2023-03-26T08:13:18.071Z,8.55
2023-03-26T08:16:30.461Z,8.53
2023-03-26T08:19:51.629Z,8.54
2023-03-26T08:23:03.687Z,8.64
2023-03-26T08:26:16.268Z,8.66
2023-03-26T08:29:26.889Z,8.55
2023-03-26T08:32:31.110Z,8.64
2023-03-26T08:35:35.473Z,8.63
2023-03-26T08:38:39.165Z,8.97
2023-03-26T08:42:37.067Z,8.87
2023-03-26T08:46:02.008Z,8.82
2023-03-26T08:49:31.933Z,8.98
2023-03-26T08:53:04.309Z,8.91
2023-03-26T08:56:22.966Z,8.86
2023-03-26T09:00:13.767Z,8.76
2023-03-26T09:03:55.136Z,8.64
2023-03-26T09:07:32.367Z,8.49
2023-03-26T09:10:52.883Z,8.53
2023-03-26T09:14:43.344Z,8.38
2023-03-26T09:18:18.450Z,8.11
2023-03-26T09:21:54.160Z,8.25
2023-03-26T09:25:41.726Z,8.09
2023-03-26T09:29:19.004Z,8.25
2023-03-26T09:32:53.848Z,8.39
2023-03-26T09:36:32.351Z,8.66
2023-03-26T09:39:40.208Z,8.68
2023-03-26T09:42:55.059Z,8.84
2023-03-26T09:46:10.686Z,8.89
2023-03-26T09:49:40.189Z,9.14
2023-03-26T09:53:08.309Z,9.42
2023-03-26T09:56:27.147Z,9.29
2023-03-26T09:59:56.201Z,9.61
2023-03-26T10:03:20.160Z,9.70
2023-03-26T10:06:46.062Z,9.76
2023-03-26T10:09:58.187Z,9.85
2023-03-26T10:13:15.025Z,9.71
2023-03-26T10:16:27.575Z,10.10
2023-03-26T10:19:52.596Z,9.78
2023-03-26T10:23:08.770Z,10.09
2023-03-26T10:27:08.797Z,9.85
2023-03-26T10:30:24.074Z,9.92
2023-03-26T10:33:38.146Z,10.01
2023-03-26T10:36:51.977Z,9.98
2023-03-26T10:40:14.262Z,9.98
2023-03-26T10:43:39.805Z,9.95
2023-03-26T10:47:01.306Z,10.08
2023-03-26T10:50:22.967Z,10.15
2023-03-26T10:53:40.325Z,10.42
2023-03-26T10:56:47.637Z,10.42
2023-03-26T10:59:53.373Z,10.38
2023-03-26T11:03:18.890Z,10.33
2023-03-26T11:06:43.459Z,10.29
2023-03-26T11:09:54.926Z,10.14
2023-03-26T11:13:09.291Z,10.09
2023-03-26T11:16:21.095Z,10.31
2023-03-26T11:19:32.707Z,11.40
2023-03-26T11:22:49.753Z,11.02
2023-03-26T11:26:10.333Z,10.62
2023-03-26T11:29:48.557Z,10.68
2023-03-26T11:32:58.163Z,10.52
2023-03-26T11:36:06.692Z,10.34
2023-03-26T11:39:15.324Z,10.24
2023-03-26T11:42:23.160Z,10.19
2023-03-26T11:45:30.729Z,8.93
2023-03-26T11:48:41.991Z,8.65
2023-03-26T11:51:48.874Z,8.57
2023-03-26T11:54:52.470Z,8.81
2023-03-26T11:58:00.527Z,8.74
2023-03-26T12:01:16.595Z,8.86
2023-03-26T12:04:31.350Z,9.72
2023-03-26T12:07:37.469Z,10.06
2023-03-26T12:10:44.122Z,10.26
2023-03-26T12:13:54.777Z,9.92
2023-03-26T12:17:03.740Z,10.20
2023-03-26T12:20:34.898Z,10.22
2023-03-26T12:23:45.138Z,10.19
2023-03-26T12:26:50.321Z,10.40
2023-03-26T12:29:55.158Z,10.72
2023-03-26T12:33:03.899Z,10.61
2023-03-26T12:36:23.461Z,10.55
2023-03-26T12:40:08.988Z,10.63
2023-03-26T12:44:54.606Z,10.80
2023-03-26T12:47:55.673Z,11.55
2023-03-26T12:49:53.269Z,11.43
2023-03-26T12:53:20.200Z,11.86
2023-03-26T12:56:37.095Z,11.44
2023-03-26T13:00:00.336Z,11.38
2023-03-26T13:03:24.276Z,11.14
2023-03-26T13:06:59.298Z,11.03
2023-03-26T13:10:34.603Z,10.94
2023-03-26T13:14:14.841Z,10.60
2023-03-26T13:17:27.407Z,10.70
2023-03-26T13:20:44.408Z,10.53
2023-03-26T13:23:55.466Z,10.48
2023-03-26T13:27:11.350Z,10.50
2023-03-26T13:30:38.538Z,10.49
2023-03-26T13:33:51.658Z,10.44
2023-03-26T13:37:07.837Z,10.52
2023-03-26T13:40:26.481Z,10.47
2023-03-26T13:43:39.015Z,10.89
2023-03-26T13:46:47.463Z,10.86
2023-03-26T13:49:56.533Z,11.18
2023-03-26T13:53:04.299Z,11.15
2023-03-26T13:56:14.593Z,11.17
2023-03-26T13:59:25.856Z,10.94
2023-03-26T14:02:38.637Z,10.94
2023-03-26T14:05:48.686Z,11.28
2023-03-26T14:08:59.494Z,11.34
2023-03-26T14:12:20.969Z,11.31
2023-03-26T14:15:29.626Z,10.99
2023-03-26T14:18:44.475Z,10.91
2023-03-26T14:22:04.041Z,10.60
2023-03-26T14:25:27.731Z,10.66
2023-03-26T14:29:06.554Z,10.61
2023-03-26T14:32:30.936Z,10.66
2023-03-26T14:35:41.622Z,10.56
2023-03-26T14:39:07.981Z,11.01
2023-03-26T14:42:20.567Z,11.15
2023-03-26T14:45:56.638Z,11.27
2023-03-26T14:49:15.335Z,11.36
2023-03-26T14:52:31.630Z,11.07
2023-03-26T14:56:04.198Z,11.15
2023-03-26T14:59:32.650Z,10.88
2023-03-26T15:03:27.606Z,11.05
2023-03-26T15:07:03.959Z,11.02
2023-03-26T15:10:41.845Z,11.02
2023-03-26T15:13:57.243Z,11.08
2023-03-26T15:17:42.179Z,10.93
2023-03-26T15:21:23.523Z,10.89
2023-03-26T15:24:53.713Z,10.83
2023-03-26T15:28:52.561Z,10.67
2023-03-26T15:32:31.418Z,10.40
2023-03-26T15:35:57.768Z,10.24
2023-03-26T15:39:58.651Z,10.17
2023-03-26T15:43:11.841Z,10.10
2023-03-26T15:46:32.417Z,10.22
2023-03-26T15:49:42.975Z,10.23
2023-03-26T15:52:54.004Z,10.31
2023-03-26T15:56:09.172Z,10.34
2023-03-26T15:59:28.288Z,10.38
2023-03-26T16:02:42.243Z,10.48
2023-03-26T16:06:08.942Z,10.67
2023-03-26T16:09:29.065Z,10.73
2023-03-26T16:12:36.944Z,10.70
2023-03-26T16:15:42.828Z,10.59
2023-03-26T16:18:49.242Z,10.54
2023-03-26T16:21:59.473Z,10.46
2023-03-26T16:25:27.791Z,10.33
2023-03-26T16:28:35.687Z,10.33
2023-03-26T16:32:00.760Z,10.24
2023-03-26T16:35:37.133Z,10.38
2023-03-26T16:38:52.067Z,10.17
2023-03-26T16:42:06.149Z,10.18
2023-03-26T16:45:28.197Z,10.06
2023-03-26T16:48:39.812Z,9.96
2023-03-26T16:52:03.357Z,9.77
2023-03-26T16:55:17.631Z,9.90
2023-03-26T16:58:31.841Z,9.64
2023-03-26T17:01:43.078Z,9.48
2023-03-26T17:04:50.709Z,9.25
2023-03-26T17:08:02.955Z,8.95
2023-03-26T17:11:20.387Z,8.66
2023-03-26T17:14:41.663Z,8.57
2023-03-26T17:18:21.135Z,8.50
2023-03-26T17:21:46.029Z,8.20
2023-03-26T17:24:59.738Z,8.22
2023-03-26T17:28:43.506Z,8.31
2023-03-26T17:31:53.533Z,8.22
2023-03-26T17:35:02.256Z,7.97
2023-03-26T17:38:10.940Z,7.93
2023-03-26T17:42:02.565Z,7.90
2023-03-26T17:45:14.238Z,8.02
2023-03-26T17:48:23.284Z,8.25
2023-03-26T17:51:41.110Z,8.24
2023-03-26T17:54:47.640Z,8.20
2023-03-26T17:57:57.806Z,8.09
2023-03-26T18:01:09.255Z,8.07
2023-03-26T18:04:19.962Z,7.84
2023-03-26T18:08:03.641Z,7.90
2023-03-26T18:11:45.508Z,7.62
2023-03-26T18:15:11.339Z,7.30
2023-03-26T18:18:20.012Z,7.18
2023-03-26T18:21:33.940Z,7.01
2023-03-26T18:24:40.124Z,6.84
2023-03-26T18:27:44.206Z,7.01
2023-03-26T18:30:50.857Z,6.75
2023-03-26T18:33:59.250Z,6.57
2023-03-26T18:37:16.669Z,6.50
2023-03-26T18:40:22.219Z,6.56
2023-03-26T18:43:34.352Z,6.48
2023-03-26T18:46:39.915Z,6.25
2023-03-26T18:49:45.352Z,6.48
2023-03-26T18:52:49.136Z,6.62
2023-03-26T18:55:53.932Z,6.62
2023-03-26T18:59:03.007Z,6.15
2023-03-26T19:02:16.454Z,6.33
2023-03-26T19:05:21.629Z,6.32
2023-03-26T19:08:26.390Z,6.47
2023-03-26T19:11:33.615Z,6.71
2023-03-26T19:14:55.194Z,6.80
2023-03-26T19:18:07.396Z,6.71
2023-03-26T19:21:11.258Z,6.99
2023-03-26T19:24:16.502Z,6.84
2023-03-26T19:27:20.495Z,6.95
2023-03-26T19:30:30.478Z,6.91
2023-03-26T19:33:37.852Z,7.11
2023-03-26T19:36:58.114Z,7.01
2023-03-26T19:40:07.594Z,6.93
2023-03-26T19:43:13.446Z,7.01
2023-03-26T19:46:16.999Z,6.96
2023-03-26T19:49:29.647Z,7.08
2023-03-26T19:52:39.018Z,6.92
2023-03-26T19:55:43.184Z,6.99
2023-03-26T19:58:46.642Z,7.11
2023-03-26T20:01:50.173Z,7.06
2023-03-26T20:04:55.384Z,7.02
2023-03-26T20:08:03.260Z,6.78
2023-03-26T20:11:20.618Z,6.96
2023-03-26T20:14:26.241Z,7.00
2023-03-26T20:17:31.049Z,7.09
2023-03-26T20:20:36.772Z,7.07
2023-03-26T20:23:40.452Z,7.10
2023-03-26T20:26:44.270Z,7.06
2023-03-26T20:29:47.813Z,7.05
2023-03-26T20:32:51.511Z,7.12
2023-03-26T20:36:33.329Z,6.96
2023-03-26T20:39:39.618Z,7.00
2023-03-26T20:42:45.524Z,7.15
2023-03-26T20:45:49.873Z,7.12
2023-03-26T20:48:54.912Z,7.00
2023-03-26T20:52:01.252Z,7.00
2023-03-26T20:55:05.033Z,6.83
2023-03-26T20:58:10.554Z,6.85
2023-03-26T21:01:14.995Z,6.89
2023-03-26T21:04:19.364Z,6.88
2023-03-26T21:07:24.197Z,6.91
2023-03-26T21:10:30.603Z,6.97
2023-03-26T21:13:39.027Z,6.95
2023-03-26T21:16:43.112Z,6.93
2023-03-26T21:19:47.725Z,7.12
2023-03-26T21:23:00.211Z,7.12
2023-03-26T21:26:12.205Z,7.10
2023-03-26T21:29:16.088Z,7.21
2023-03-26T21:32:20.530Z,7.16
2023-03-26T21:35:24.674Z,7.22
2023-03-26T21:38:32.654Z,7.15
2023-03-26T21:41:44.452Z,7.24
2023-03-26T21:44:48.673Z,7.06
2023-03-26T21:47:53.180Z,7.01
2023-03-26T21:51:02.563Z,6.86
2023-03-26T21:54:22.301Z,6.86
2023-03-26T21:57:48.558Z,6.86
2023-03-26T22:01:06.451Z,6.86
2023-03-26T22:04:15.736Z,6.97
2023-03-26T22:07:22.026Z,6.84
2023-03-26T22:10:27.156Z,6.71
2023-03-26T22:13:31.122Z,6.95
2023-03-26T22:16:34.596Z,6.99
2023-03-26T22:19:38.076Z,7.09
2023-03-26T22:22:48.849Z,7.05
2023-03-26T22:25:53.733Z,7.01
2023-03-26T22:28:57.471Z,6.71
2023-03-26T22:32:00.965Z,6.74
2023-03-26T22:35:05.054Z,6.77
2023-03-26T22:38:09.908Z,6.66
2023-03-26T22:41:15.609Z,6.51
2023-03-26T22:44:20.121Z,6.61
2023-03-26T22:47:23.970Z,6.59
2023-03-26T22:50:28.069Z,6.49
2023-03-26T22:53:35.166Z,6.52
2023-03-26T22:56:40.150Z,6.65
2023-03-26T22:59:43.887Z,6.67
2023-03-26T23:02:48.208Z,6.68
2023-03-26T23:05:58.580Z,6.42
2023-03-26T23:09:02.147Z,6.51
2023-03-26T23:12:07.831Z,6.65
2023-03-26T23:15:12.325Z,6.72
2023-03-26T23:18:15.718Z,6.89
2023-03-26T23:21:20.959Z,6.54
2023-03-26T23:24:26.649Z,6.58
2023-03-26T23:27:32.998Z,6.61
2023-03-26T23:30:36.524Z,6.80
2023-03-26T23:33:46.545Z,6.74
2023-03-26T23:36:50.825Z,6.75
2023-03-26T23:40:00.601Z,6.76
2023-03-26T23:43:05.721Z,6.73
2023-03-26T23:46:10.515Z,6.65
2023-03-26T23:49:15.191Z,6.55
2023-03-26T23:52:18.633Z,6.74
2023-03-26T23:55:22.231Z,6.49
2023-03-26T23:58:30.220Z,6.61
